Time;durP1;ratioP1;P1;durP2;ratioP2;P2;SDS_P1;SDS_P2;PMS_P1;PMS_P2;Temp;Humidity;BMP_temperature;BMP_pressure;BME280_temperature;BME280_humidity;BME280_pressure;Samples;Min_cycle;Max_cycle;Signal;HPM_P1;HPM_P2
2022/12/11 00:01:09;;;;;;;30.60;13.90;;;-0.80;1.00;;;;;;5049685;28;20373;-59
2022/12/11 00:03:35;;;;;;;27.73;12.45;;;-0.70;1.00;;;;;;5050806;28;20431;-58
2022/12/11 00:06:07;;;;;;;25.10;11.32;;;-0.70;1.00;;;;;;5050028;28;20751;-60
2022/12/11 00:08:33;;;;;;;30.83;13.25;;;-0.60;1.00;;;;;;5050461;28;20435;-58
2022/12/11 00:10:59;;;;;;;26.20;12.77;;;-0.60;1.00;;;;;;5049723;28;20855;-58
2022/12/11 00:13:24;;;;;;;27.90;12.73;;;-0.60;1.00;;;;;;5032631;28;20719;-58
2022/12/11 00:15:50;;;;;;;30.10;13.40;;;-0.60;1.00;;;;;;5050533;28;20478;-58
2022/12/11 00:18:15;;;;;;;29.25;14.70;;;-0.60;1.00;;;;;;5049604;28;20476;-59
2022/12/11 00:20:41;;;;;;;26.80;13.33;;;-0.50;1.00;;;;;;5050583;28;20377;-58
2022/12/11 00:23:07;;;;;;;27.00;13.83;;;-0.50;1.00;;;;;;5049635;28;20380;-59
2022/12/11 00:25:33;;;;;;;25.70;12.30;;;-0.50;1.00;;;;;;5050216;28;20469;-58
2022/12/11 00:27:58;;;;;;;27.67;12.10;;;-0.50;1.00;;;;;;5049513;28;20763;-58
2022/12/11 00:30:24;;;;;;;27.77;12.80;;;-0.40;99.90;;;;;;5050259;28;20394;-59
2022/12/11 00:32:52;;;;;;;26.90;12.37;;;-0.30;99.90;;;;;;5049875;28;20381;-58
2022/12/11 00:35:18;;;;;;;25.75;11.35;;;-0.30;99.90;;;;;;5049803;28;20496;-59
2022/12/11 00:37:43;;;;;;;26.63;12.10;;;-0.20;99.90;;;;;;5050196;28;20927;-58
2022/12/11 00:40:10;;;;;;;28.40;12.77;;;-0.20;99.90;;;;;;5049509;28;20384;-59
2022/12/11 00:42:35;;;;;;;26.58;12.18;;;-0.10;1.00;;;;;;5049636;28;20388;-58
2022/12/11 00:45:01;;;;;;;28.58;13.57;;;0.00;1.00;;;;;;5049851;28;20378;-60
2022/12/11 00:47:27;;;;;;;31.55;12.85;;;0.10;1.00;;;;;;5050000;28;20453;-60
2022/12/11 00:49:52;;;;;;;31.40;12.75;;;0.20;1.00;;;;;;5049368;28;20381;-61
2022/12/11 00:52:18;;;;;;;22.87;11.40;;;0.30;99.90;;;;;;5049805;28;20739;-60
2022/12/11 00:54:44;;;;;;;25.50;12.30;;;0.60;1.00;;;;;;5050011;28;20377;-60
2022/12/11 00:57:09;;;;;;;28.58;13.30;;;0.30;1.00;;;;;;5049372;28;20862;-60
2022/12/11 00:59:35;;;;;;;28.53;13.00;;;0.30;99.90;;;;;;5049466;28;20382;-60
2022/12/11 01:02:00;;;;;;;28.83;13.40;;;0.40;99.90;;;;;;5048970;28;20386;-60
2022/12/11 01:04:26;;;;;;;26.73;12.03;;;0.50;99.90;;;;;;5049945;28;20877;-60
2022/12/11 01:06:52;;;;;;;29.10;12.30;;;0.60;99.90;;;;;;5049062;28;20405;-64
2022/12/11 01:12:01;;;;;;;26.80;11.82;;;0.70;99.90;;;;;;5049280;28;20380;-60
2022/12/11 01:14:27;;;;;;;24.98;12.68;;;0.70;99.90;;;;;;5049774;28;20758;-60
2022/12/11 01:16:53;;;;;;;25.90;12.97;;;0.70;99.90;;;;;;5049580;28;20421;-66
2022/12/11 01:19:18;;;;;;;27.80;12.30;;;0.70;99.90;;;;;;5049332;28;20400;-60
2022/12/11 01:21:44;;;;;;;27.15;12.52;;;0.60;99.90;;;;;;5049463;28;20468;-60
2022/12/11 01:24:09;;;;;;;30.63;14.13;;;0.70;99.90;;;;;;5050393;28;20472;-61
2022/12/11 01:26:35;;;;;;;27.77;13.10;;;0.60;1.00;;;;;;5053229;28;20886;-58
2022/12/11 01:29:00;;;;;;;26.67;12.27;;;0.90;99.90;;;;;;5034908;28;20398;-59
2022/12/11 01:31:26;;;;;;;27.73;12.33;;;0.70;1.00;;;;;;5036055;28;20416;-60
2022/12/11 01:33:55;;;;;;;25.45;13.15;;;0.60;28.90;;;;;;5073056;28;20395;-64
2022/12/11 01:36:22;;;;;;;27.15;13.30;;;0.60;1.00;;;;;;5072931;28;20420;-61
2022/12/11 01:38:48;;;;;;;26.45;12.90;;;0.70;99.90;;;;;;5073822;28;20390;-59
2022/12/11 01:41:15;;;;;;;24.40;11.93;;;0.60;1.00;;;;;;5072595;28;20376;-58
2022/12/11 01:44:02;;;;;;;26.83;12.63;;;0.60;99.90;;;;;;5073455;28;20380;-58
2022/12/11 01:46:29;;;;;;;26.67;12.30;;;0.50;1.00;;;;;;5073159;28;20379;-58
2022/12/11 01:48:56;;;;;;;26.42;13.10;;;0.40;1.00;;;;;;5054388;28;20703;-64
2022/12/11 01:51:23;;;;;;;27.90;12.73;;;0.30;99.90;;;;;;5072775;28;20376;-58
2022/12/11 01:53:58;;;;;;;25.27;11.65;;;0.30;99.90;;;;;;5072822;28;20720;-58
2022/12/11 01:56:24;;;;;;;28.65;12.70;;;0.20;1.00;;;;;;5073265;28;20375;-58
2022/12/11 01:58:54;;;;;;;32.33;13.60;;;0.20;99.90;;;;;;5073019;28;20383;-62
2022/12/11 02:01:26;;;;;;;29.02;13.35;;;0.90;1.00;;;;;;5072892;28;20371;-60
2022/12/11 02:03:54;;;;;;;27.73;12.63;;;0.30;99.90;;;;;;5072812;28;20388;-63
2022/12/11 02:06:34;;;;;;;33.15;12.70;;;0.40;99.90;;;;;;5072808;28;20470;-58
2022/12/11 02:09:01;;;;;;;26.95;13.05;;;0.50;1.00;;;;;;5071995;28;20407;-58
2022/12/11 02:11:38;;;;;;;30.73;12.93;;;0.40;99.90;;;;;;5072718;28;20370;-61
2022/12/11 02:14:14;;;;;;;28.27;13.10;;;0.10;1.00;;;;;;5072056;28;20386;-60
2022/12/11 02:17:12;;;;;;;30.55;13.65;;;0.00;1.00;;;;;;5072102;28;20383;-58
2022/12/11 02:19:44;;;;;;;27.25;13.13;;;-0.10;99.90;;;;;;5044701;28;20391;-60
2022/12/11 02:22:15;;;;;;;30.02;13.82;;;-0.10;99.90;;;;;;5071766;28;20764;-58
2022/12/11 02:24:58;;;;;;;30.02;14.20;;;-0.10;99.90;;;;;;5072588;28;20379;-61
2022/12/11 02:27:46;;;;;;;28.15;12.90;;;-0.10;1.00;;;;;;5071919;28;20410;-58
2022/12/11 02:30:14;;;;;;;33.63;14.25;;;-0.10;68.30;;;;;;5071580;28;20506;-58
2022/12/11 02:32:40;;;;;;;29.90;13.40;;;-0.10;99.90;;;;;;5072401;28;20387;-58
2022/12/11 02:35:17;;;;;;;35.70;15.10;;;-0.10;99.90;;;;;;5068810;28;20450;-58
2022/12/11 02:37:45;;;;;;;27.85;13.23;;;0.00;99.90;;;;;;5054475;28;20407;-58
2022/12/11 02:40:14;;;;;;;27.60;13.23;;;0.10;99.90;;;;;;5070970;28;20726;-59
2022/12/11 02:42:42;;;;;;;26.70;12.02;;;0.20;99.90;;;;;;5072146;28;20402;-59
2022/12/11 02:45:09;;;;;;;27.33;11.95;;;0.30;99.90;;;;;;5071967;28;20372;-58
2022/12/11 02:47:36;;;;;;;26.88;12.25;;;0.30;99.90;;;;;;5072130;28;20418;-60
2022/12/11 02:50:08;;;;;;;26.30;13.30;;;0.30;1.00;;;;;;5071299;28;20380;-59
2022/12/11 02:52:35;;;;;;;27.92;13.25;;;0.30;99.90;;;;;;5072238;28;20387;-58
2022/12/11 02:55:02;;;;;;;26.48;11.73;;;0.20;36.20;;;;;;5071469;28;20865;-59
2022/12/11 02:57:38;;;;;;;29.52;13.30;;;0.30;99.90;;;;;;5071669;28;20372;-58
2022/12/11 03:00:07;;;;;;;28.60;14.02;;;0.30;1.00;;;;;;5070712;28;20799;-58
2022/12/11 03:02:32;;;;;;;28.75;12.90;;;0.40;99.90;;;;;;5071502;28;20452;-58
2022/12/11 03:04:59;;;;;;;24.38;12.45;;;0.40;1.00;;;;;;5071467;28;20841;-59
2022/12/11 03:07:31;;;;;;;27.23;13.73;;;0.40;99.90;;;;;;5072201;28;20400;-59
2022/12/11 03:09:56;;;;;;;26.80;12.38;;;0.50;1.00;;;;;;5071948;28;20384;-65
2022/12/11 03:12:28;;;;;;;32.28;14.20;;;0.50;99.90;;;;;;5071507;28;20922;-58
2022/12/11 03:14:55;;;;;;;25.08;14.23;;;0.50;99.90;;;;;;5071412;28;20395;-65
2022/12/11 03:17:24;;;;;;;29.75;13.02;;;0.50;99.90;;;;;;5070787;28;20958;-60
2022/12/11 03:20:14;;;;;;;29.70;14.90;;;0.50;99.90;;;;;;5071366;28;20432;-60
2022/12/11 03:22:54;;;;;;;28.80;13.77;;;0.50;1.00;;;;;;5053213;28;20392;-59
2022/12/11 03:25:38;;;;;;;31.55;14.75;;;0.50;99.90;;;;;;5070761;28;20395;-60
2022/12/11 03:28:18;;;;;;;30.48;13.85;;;0.50;1.00;;;;;;5070135;28;20510;-60
2022/12/11 03:30:45;;;;;;;27.42;13.27;;;0.50;99.90;;;;;;5071324;28;20374;-60
2022/12/11 03:33:18;;;;;;;29.10;13.63;;;0.50;99.90;;;;;;5070863;28;20379;-60
2022/12/11 03:35:50;;;;;;;29.92;14.90;;;0.50;99.90;;;;;;5070756;28;20400;-60
2022/12/11 03:38:30;;;;;;;28.27;12.48;;;0.50;99.90;;;;;;5070360;28;20445;-60
2022/12/11 03:40:59;;;;;;;30.77;13.65;;;0.60;1.00;;;;;;5070152;28;20422;-66
2022/12/11 03:43:27;;;;;;;26.27;12.60;;;0.60;99.90;;;;;;5070897;28;20387;-60
2022/12/11 03:45:54;;;;;;;31.63;12.40;;;0.50;1.00;;;;;;5070751;28;20380;-62
2022/12/11 03:48:22;;;;;;;31.73;13.70;;;0.50;1.00;;;;;;5070914;28;20839;-60
2022/12/11 03:50:48;;;;;;;30.10;13.38;;;1.80;66.20;;;;;;5070832;28;20371;-60
2022/12/11 03:53:15;;;;;;;28.70;12.25;;;2.20;99.90;;;;;;5070855;28;20717;-60
2022/12/11 03:55:42;;;;;;;29.83;12.65;;;0.30;99.90;;;;;;5071345;28;20380;-60
2022/12/11 03:58:07;;;;;;;27.90;12.43;;;0.20;1.00;;;;;;5070818;28;20380;-60
2022/12/11 04:00:33;;;;;;;28.90;13.00;;;0.30;1.00;;;;;;5070691;28;20706;-60
2022/12/11 04:03:16;;;;;;;27.77;12.23;;;0.40;1.00;;;;;;5052263;28;20391;-60
2022/12/11 04:05:45;;;;;;;28.27;11.90;;;0.30;1.00;;;;;;5070579;28;20376;-60
2022/12/11 04:08:11;;;;;;;26.53;12.63;;;0.40;99.90;;;;;;5070063;28;20471;-60
2022/12/11 04:10:37;;;;;;;26.83;11.73;;;0.40;1.00;;;;;;5071281;28;20380;-60
2022/12/11 04:13:03;;;;;;;31.13;12.15;;;0.40;1.00;;;;;;5070349;28;20829;-60
2022/12/11 04:15:29;;;;;;;28.42;12.52;;;1.80;99.90;;;;;;5070171;28;20418;-60
2022/12/11 04:26:12;;;;;;;25.75;13.23;;;0.10;1.00;;;;;;5070125;28;20444;-62
2022/12/11 04:28:40;;;;;;;24.10;10.38;;;0.00;1.00;;;;;;5070492;28;20407;-60
2022/12/11 04:31:14;;;;;;;24.08;11.60;;;-0.10;1.00;;;;;;5069590;28;20384;-57
2022/12/11 04:33:40;;;;;;;25.42;10.55;;;-0.10;99.90;;;;;;5070207;28;20497;-59
2022/12/11 04:36:06;;;;;;;22.70;11.87;;;0.00;1.00;;;;;;5069566;28;20433;-59
2022/12/11 04:38:32;;;;;;;25.27;11.07;;;0.00;1.00;;;;;;5070359;28;20720;-58
2022/12/11 04:41:12;;;;;;;21.17;10.90;;;0.10;1.00;;;;;;5069551;28;20868;-64
2022/12/11 04:43:38;;;;;;;27.10;11.25;;;0.00;1.00;;;;;;5069940;28;21015;-59
2022/12/11 04:46:10;;;;;;;21.02;9.52;;;0.00;1.00;;;;;;5069708;28;20857;-59
2022/12/11 04:48:36;;;;;;;22.10;10.85;;;0.20;99.90;;;;;;5069787;28;20411;-59
2022/12/11 04:51:03;;;;;;;20.65;10.00;;;0.10;99.90;;;;;;5069346;28;20442;-59
2022/12/11 04:53:28;;;;;;;20.45;10.02;;;1.00;55.90;;;;;;5052210;28;20392;-59
2022/12/11 04:55:54;;;;;;;23.13;10.40;;;0.20;1.00;;;;;;5070068;28;20849;-58
2022/12/11 04:58:20;;;;;;;23.42;10.73;;;0.30;99.90;;;;;;5068310;28;20462;-60
2022/12/11 05:00:46;;;;;;;23.05;10.63;;;0.40;99.90;;;;;;5070087;28;20376;-58
2022/12/11 05:03:11;;;;;;;23.60;9.90;;;0.40;99.90;;;;;;5069288;28;20383;-59
2022/12/11 05:05:37;;;;;;;19.80;9.00;;;0.30;99.90;;;;;;5069720;28;20471;-58
2022/12/11 05:08:04;;;;;;;21.90;10.32;;;0.10;1.00;;;;;;5068687;28;20399;-59
2022/12/11 05:10:30;;;;;;;24.20;10.60;;;0.00;1.00;;;;;;5069675;28;20372;-58
2022/12/11 05:12:55;;;;;;;21.52;10.25;;;0.00;1.00;;;;;;5070079;28;20379;-58
2022/12/11 05:15:21;;;;;;;23.08;10.55;;;0.00;1.00;;;;;;5069313;28;20403;-60
2022/12/11 05:17:46;;;;;;;20.75;8.40;;;0.00;1.00;;;;;;5070094;28;20413;-60
2022/12/11 05:20:12;;;;;;;24.07;10.50;;;0.00;1.00;;;;;;5069083;28;20399;-58
2022/12/11 05:22:38;;;;;;;27.60;12.20;;;-0.10;1.00;;;;;;5070069;28;20466;-58
2022/12/11 05:25:04;;;;;;;29.00;12.52;;;-0.10;1.00;;;;;;5069079;28;20869;-58
2022/12/11 05:27:30;;;;;;;23.83;11.82;;;-0.10;99.90;;;;;;5069561;28;20408;-58
2022/12/11 05:29:56;;;;;;;28.92;12.65;;;-0.10;99.90;;;;;;5070248;28;20399;-61
2022/12/11 05:32:21;;;;;;;28.75;12.80;;;-0.20;1.00;;;;;;5068676;28;20860;-60
2022/12/11 05:34:48;;;;;;;25.27;12.63;;;-0.10;99.90;;;;;;5068931;28;20474;-61
2022/12/11 05:37:14;;;;;;;28.37;13.20;;;-0.10;1.00;;;;;;5069276;28;20857;-61
2022/12/11 05:39:39;;;;;;;27.50;11.60;;;-0.10;99.90;;;;;;5069542;28;20434;-62
2022/12/11 05:42:05;;;;;;;30.92;12.88;;;-0.10;1.00;;;;;;5069336;28;20705;-60
2022/12/11 05:44:31;;;;;;;26.10;12.83;;;-0.20;99.90;;;;;;5069794;28;20376;-58
2022/12/11 05:46:56;;;;;;;29.63;11.93;;;-0.30;1.00;;;;;;5069852;28;20720;-58
2022/12/11 05:49:22;;;;;;;29.95;13.20;;;-0.20;99.90;;;;;;5068338;28;20426;-58
2022/12/11 05:51:47;;;;;;;30.20;13.67;;;-0.30;99.90;;;;;;5069250;28;20376;-58
2022/12/11 05:54:13;;;;;;;32.40;14.00;;;-0.20;1.00;;;;;;5068726;28;20464;-59
2022/12/11 05:56:39;;;;;;;29.48;12.90;;;-0.30;1.00;;;;;;5069337;28;20379;-59
2022/12/11 05:59:05;;;;;;;30.67;13.70;;;-0.30;99.90;;;;;;5068597;28;20415;-59
2022/12/11 06:01:36;;;;;;;30.52;13.32;;;-0.40;99.90;;;;;;5069074;28;20434;-59
2022/12/11 06:04:03;;;;;;;32.00;14.63;;;-0.40;99.90;;;;;;5068793;28;20388;-59
2022/12/11 06:06:29;;;;;;;31.10;14.13;;;-0.50;99.90;;;;;;5069509;28;20478;-59
2022/12/11 06:08:57;;;;;;;27.23;11.77;;;-0.50;1.00;;;;;;5069119;28;20507;-60
2022/12/11 06:11:24;;;;;;;29.83;13.40;;;-0.70;1.00;;;;;;5072306;28;20383;-59
2022/12/11 06:13:51;;;;;;;30.70;14.75;;;-0.70;99.90;;;;;;5073133;28;20388;-58
2022/12/11 06:16:16;;;;;;;31.27;13.70;;;-0.70;89.90;;;;;;5071923;28;20429;-59
2022/12/11 06:18:43;;;;;;;30.83;13.68;;;-0.80;1.00;;;;;;5072777;28;20760;-59
2022/12/11 06:21:16;;;;;;;28.92;12.20;;;-0.90;1.00;;;;;;5072366;28;20364;-59
2022/12/11 06:23:43;;;;;;;31.92;13.35;;;-0.90;99.90;;;;;;5072773;28;20384;-58
2022/12/11 06:26:10;;;;;;;28.63;12.07;;;-1.00;1.00;;;;;;5072361;28;20518;-59
2022/12/11 06:28:35;;;;;;;30.90;13.57;;;-1.10;1.00;;;;;;5072848;28;20404;-60
2022/12/11 06:31:01;;;;;;;28.13;13.03;;;-1.20;99.90;;;;;;5071634;28;20391;-63
2022/12/11 06:33:27;;;;;;;31.55;12.45;;;-1.20;1.00;;;;;;5072024;28;20406;-58
2022/12/11 06:35:53;;;;;;;33.22;12.73;;;-1.10;1.00;;;;;;5072196;28;20412;-58
2022/12/11 06:38:18;;;;;;;29.13;13.50;;;-1.10;1.00;;;;;;5072095;28;20731;-57
2022/12/11 06:40:44;;;;;;;26.43;12.03;;;-1.10;99.90;;;;;;5072771;28;20368;-60
2022/12/11 06:43:09;;;;;;;27.58;12.13;;;-1.20;99.90;;;;;;5072197;28;20371;-60
2022/12/11 06:45:38;;;;;;;28.40;12.50;;;-1.20;99.90;;;;;;5071840;28;20376;-60
2022/12/11 06:48:04;;;;;;;27.60;13.65;;;-1.20;99.90;;;;;;5071683;28;20793;-58
2022/12/11 06:50:29;;;;;;;33.42;13.50;;;-1.20;1.00;;;;;;5072650;28;20414;-57
2022/12/11 06:52:55;;;;;;;29.40;13.68;;;-1.10;1.00;;;;;;5072815;28;20391;-57
2022/12/11 06:55:22;;;;;;;31.48;12.90;;;-1.10;1.00;;;;;;5071239;28;21060;-58
2022/12/11 06:57:47;;;;;;;31.57;13.90;;;-1.00;1.00;;;;;;5071836;28;20449;-57
2022/12/11 07:00:14;;;;;;;30.13;14.60;;;-0.90;6.90;;;;;;5069088;28;20393;-59
2022/12/11 07:02:40;;;;;;;28.77;12.48;;;-0.80;27.60;;;;;;5068659;28;20407;-60
2022/12/11 07:05:06;;;;;;;30.90;13.37;;;-0.70;1.00;;;;;;5064310;28;20431;-58
2022/12/11 07:07:31;;;;;;;29.48;12.40;;;-0.70;1.00;;;;;;5072012;28;20465;-61
2022/12/11 07:09:57;;;;;;;28.52;11.68;;;-0.70;1.00;;;;;;5070823;28;20434;-67
2022/12/11 07:12:23;;;;;;;28.27;12.77;;;-0.70;99.90;;;;;;5071379;28;20403;-60
2022/12/11 07:14:48;;;;;;;31.73;13.30;;;-0.70;99.90;;;;;;5071257;28;20391;-64
2022/12/11 07:17:14;;;;;;;32.97;14.95;;;-0.60;99.90;;;;;;5070682;28;20387;-60
2022/12/11 07:19:40;;;;;;;35.20;15.02;;;-0.50;99.90;;;;;;5068687;28;20917;-60
2022/12/11 07:22:06;;;;;;;30.77;12.43;;;-0.50;1.00;;;;;;5051718;28;20384;-60
2022/12/11 07:24:31;;;;;;;45.50;19.30;;;-0.30;1.00;;;;;;5070932;28;20462;-60
2022/12/11 07:26:57;;;;;;;34.67;14.60;;;-0.20;1.00;;;;;;5071473;28;20461;-60
2022/12/11 07:29:23;;;;;;;30.88;13.20;;;-0.20;99.90;;;;;;5071112;28;20877;-60
2022/12/11 07:31:49;;;;;;;33.30;13.67;;;-0.10;99.90;;;;;;5070603;28;20422;-60
2022/12/11 07:34:15;;;;;;;29.02;12.95;;;-0.10;1.00;;;;;;5069781;28;20407;-61
2022/12/11 07:36:42;;;;;;;30.23;12.90;;;-0.10;99.90;;;;;;5070457;28;20395;-60
2022/12/11 07:39:10;;;;;;;31.00;13.88;;;-0.10;1.00;;;;;;5070501;28;20375;-59
2022/12/11 07:41:36;;;;;;;29.92;12.90;;;0.00;99.90;;;;;;5070828;28;20384;-62
2022/12/11 07:44:02;;;;;;;32.30;14.73;;;-0.10;52.20;;;;;;5070557;28;20891;-61
2022/12/11 07:46:30;;;;;;;31.90;15.05;;;0.00;1.00;;;;;;5070541;28;20385;-61
2022/12/11 07:48:55;;;;;;;32.92;15.18;;;0.10;1.00;;;;;;5070458;28;20418;-60
2022/12/11 07:51:29;;;;;;;33.00;14.53;;;0.10;99.90;;;;;;5070083;28;20741;-61
2022/12/11 07:54:01;;;;;;;33.13;14.33;;;0.20;1.00;;;;;;5070309;28;20387;-61
2022/12/11 07:56:29;;;;;;;31.25;14.30;;;0.20;99.90;;;;;;5070506;28;20418;-61
2022/12/11 07:58:57;;;;;;;29.03;13.53;;;0.30;99.90;;;;;;5070943;28;20588;-61
2022/12/11 08:01:25;;;;;;;29.63;13.55;;;0.40;1.00;;;;;;5051817;28;20392;-65
2022/12/11 08:03:52;;;;;;;27.60;12.70;;;0.30;1.00;;;;;;5069825;28;20469;-61
2022/12/11 08:06:20;;;;;;;31.00;13.95;;;1.00;1.00;;;;;;5069614;28;20381;-58
2022/12/11 08:08:46;;;;;;;32.47;13.68;;;0.30;99.90;;;;;;5070254;28;20407;-61
2022/12/11 08:11:13;;;;;;;29.97;13.30;;;0.40;1.00;;;;;;5069780;28;20741;-59
2022/12/11 08:13:40;;;;;;;28.48;12.60;;;0.40;99.90;;;;;;5070555;28;20380;-61
2022/12/11 08:16:07;;;;;;;33.80;14.40;;;0.60;1.00;;;;;;5069051;28;20388;-61
2022/12/11 08:18:34;;;;;;;33.30;14.35;;;0.60;99.90;;;;;;5070379;28;20986;-58
2022/12/11 08:21:12;;;;;;;26.10;12.63;;;1.80;99.90;;;;;;5070100;28;20485;-68
2022/12/11 08:23:38;;;;;;;33.50;14.32;;;0.60;1.00;;;;;;5070282;28;20433;-61
2022/12/11 08:26:09;;;;;;;32.85;14.77;;;0.50;1.00;;;;;;5067336;28;20379;-61
2022/12/11 08:28:35;;;;;;;30.50;13.43;;;0.60;1.00;;;;;;5051371;28;20407;-60
2022/12/11 08:31:04;;;;;;;32.05;13.20;;;0.70;1.00;;;;;;5049265;28;20807;-64
2022/12/11 08:33:30;;;;;;;29.98;12.27;;;0.60;99.90;;;;;;5054730;28;20393;-60
2022/12/11 08:35:56;;;;;;;30.48;14.18;;;0.60;11.10;;;;;;5069944;28;20403;-61
2022/12/11 08:38:21;;;;;;;31.70;13.52;;;0.60;1.00;;;;;;5064109;28;20447;-63
2022/12/11 08:40:47;;;;;;;31.70;12.33;;;0.60;1.00;;;;;;5050115;28;20382;-61
2022/12/11 08:43:13;;;;;;;30.60;15.47;;;0.50;1.00;;;;;;5031696;28;20389;-60
2022/12/11 08:45:38;;;;;;;32.22;15.68;;;0.50;1.00;;;;;;5049865;28;20389;-58
2022/12/11 08:48:04;;;;;;;29.87;13.20;;;2.30;99.90;;;;;;5062576;28;20768;-59
2022/12/11 08:50:30;;;;;;;35.13;15.50;;;0.60;1.00;;;;;;5063683;28;20948;-66
2022/12/11 08:52:56;;;;;;;33.40;13.87;;;0.70;1.00;;;;;;5063440;28;20408;-59
2022/12/11 08:55:22;;;;;;;30.88;14.05;;;0.60;1.00;;;;;;5062101;28;20392;-59
2022/12/11 08:57:47;;;;;;;30.10;13.07;;;0.60;99.90;;;;;;5057989;28;20390;-59
2022/12/11 09:00:14;;;;;;;34.20;14.93;;;0.70;90.30;;;;;;5061376;28;20383;-59
2022/12/11 09:02:40;;;;;;;27.13;13.65;;;0.70;99.90;;;;;;5060901;28;20885;-60
2022/12/11 09:05:08;;;;;;;30.50;14.63;;;0.80;99.90;;;;;;5063007;28;20426;-62
2022/12/11 09:07:35;;;;;;;27.02;13.88;;;0.80;27.30;;;;;;5058455;28;20462;-60
2022/12/11 09:10:01;;;;;;;30.55;13.30;;;1.70;1.00;;;;;;5063110;28;20392;-59
2022/12/11 09:12:27;;;;;;;29.27;13.05;;;1.10;1.00;;;;;;5060789;28;20725;-60
2022/12/11 09:14:53;;;;;;;28.27;13.25;;;1.30;99.90;;;;;;5065068;28;20383;-60
2022/12/11 09:17:19;;;;;;;30.50;13.68;;;1.20;81.70;;;;;;5060790;28;20392;-60
2022/12/11 09:19:44;;;;;;;27.63;12.80;;;1.20;1.00;;;;;;5060404;28;20387;-60
2022/12/11 09:22:11;;;;;;;29.08;12.57;;;1.10;1.00;;;;;;5057712;28;20385;-59
2022/12/11 09:24:37;;;;;;;27.75;12.70;;;1.20;1.00;;;;;;5061174;28;20847;-59
2022/12/11 09:27:03;;;;;;;26.30;12.80;;;1.10;1.00;;;;;;5057691;28;20462;-60
2022/12/11 09:29:29;;;;;;;26.00;12.30;;;1.20;1.00;;;;;;5060726;28;20380;-59
2022/12/11 09:31:54;;;;;;;26.10;12.45;;;1.30;1.00;;;;;;5058324;28;20863;-60
2022/12/11 09:34:20;;;;;;;23.27;12.47;;;1.40;99.90;;;;;;5042466;28;21055;-58
2022/12/11 09:36:46;;;;;;;24.05;12.35;;;1.30;99.90;;;;;;5056067;28;20945;-59
2022/12/11 09:39:14;;;;;;;24.77;12.18;;;1.60;99.90;;;;;;5056804;28;20472;-59
2022/12/11 09:41:58;;;;;;;26.42;12.73;;;1.80;99.90;;;;;;5059467;28;20724;-59
2022/12/11 09:44:24;;;;;;;23.83;11.43;;;2.00;99.90;;;;;;5050745;28;20399;-59
2022/12/11 09:46:51;;;;;;;24.75;12.23;;;2.00;1.00;;;;;;5063711;28;20737;-58
2022/12/11 09:49:40;;;;;;;29.38;12.90;;;2.00;1.00;;;;;;5063032;28;20494;-58
2022/12/11 09:52:32;;;;;;;29.08;13.85;;;2.00;1.00;;;;;;5063559;28;20395;-59
2022/12/11 09:55:11;;;;;;;23.60;12.55;;;2.20;99.90;;;;;;5065068;28;20418;-59
2022/12/11 09:57:58;;;;;;;26.80;13.18;;;2.20;99.90;;;;;;5063025;28;20799;-58
2022/12/11 10:00:39;;;;;;;34.27;14.20;;;2.00;99.90;;;;;;5064422;28;22111;-58
2022/12/11 10:03:33;;;;;;;25.00;12.60;;;2.00;99.90;;;;;;5059713;28;20393;-58
2022/12/11 10:06:23;;;;;;;25.08;11.68;;;2.00;99.90;;;;;;5065584;28;20393;-61
2022/12/11 10:08:57;;;;;;;22.80;9.73;;;2.50;99.90;;;;;;5062835;28;20408;-59
2022/12/11 10:11:53;;;;;;;23.42;11.00;;;1.70;99.90;;;;;;5063208;28;20381;-61
2022/12/11 10:14:35;;;;;;;24.80;12.00;;;1.70;99.90;;;;;;5064012;28;20443;-59
2022/12/11 10:17:17;;;;;;;24.48;12.73;;;1.80;99.90;;;;;;5059328;28;20371;-61
2022/12/11 10:19:43;;;;;;;23.40;10.90;;;1.90;99.90;;;;;;5064504;28;20740;-60
2022/12/11 10:22:21;;;;;;;24.10;12.23;;;2.00;99.90;;;;;;5063239;28;20612;-59
2022/12/11 10:25:06;;;;;;;24.27;11.00;;;1.80;99.90;;;;;;5063623;28;20795;-59
2022/12/11 10:27:37;;;;;;;25.25;12.23;;;1.80;99.90;;;;;;5059556;28;20464;-58
2022/12/11 10:30:24;;;;;;;22.65;10.45;;;1.90;99.90;;;;;;5062646;28;20408;-66
2022/12/11 10:33:15;;;;;;;23.90;11.52;;;1.90;99.90;;;;;;5065942;28;20384;-58
2022/12/11 10:35:53;;;;;;;22.55;11.07;;;1.90;99.90;;;;;;5063775;28;20404;-58
2022/12/11 10:38:31;;;;;;;30.50;15.70;;;1.90;97.50;;;;;;5060434;28;20399;-59
2022/12/11 10:41:00;;;;;;;26.37;11.70;;;1.90;93.10;;;;;;5062093;28;20434;-60
2022/12/11 10:43:38;;;;;;;24.75;11.27;;;2.90;92.10;;;;;;5055639;28;20426;-57
2022/12/11 10:46:05;;;;;;;27.60;12.43;;;2.10;93.90;;;;;;5065700;28;20751;-59
2022/12/11 10:48:31;;;;;;;23.98;11.73;;;2.10;91.60;;;;;;5057897;28;20401;-60
2022/12/11 10:51:03;;;;;;;26.17;11.60;;;2.20;77.40;;;;;;5066684;28;20983;-61
2022/12/11 10:53:32;;;;;;;23.25;11.90;;;1.90;48.30;;;;;;5067500;28;20552;-57
2022/12/11 10:55:58;;;;;;;21.08;10.75;;;2.20;45.20;;;;;;5062090;28;20402;-58
2022/12/11 10:58:32;;;;;;;24.02;11.15;;;2.20;40.60;;;;;;5063098;28;20407;-59
2022/12/11 11:01:12;;;;;;;22.75;11.48;;;3.00;33.80;;;;;;5060141;28;20396;-58
2022/12/11 11:03:51;;;;;;;24.55;11.32;;;2.40;26.30;;;;;;5064646;28;20397;-60
2022/12/11 11:06:18;;;;;;;23.35;10.60;;;2.40;19.60;;;;;;5059085;28;20437;-59
2022/12/11 11:08:49;;;;;;;19.30;8.32;;;2.50;1.00;;;;;;5063767;28;20885;-57
2022/12/11 11:11:20;;;;;;;20.95;9.23;;;2.50;1.00;;;;;;5058759;28;20386;-58
2022/12/11 11:13:46;;;;;;;19.08;8.40;;;2.30;1.00;;;;;;5064055;28;20433;-60
2022/12/11 11:16:15;;;;;;;20.50;8.20;;;1.90;1.00;;;;;;5059633;28;20457;-60
2022/12/11 11:18:42;;;;;;;19.80;9.18;;;1.80;1.00;;;;;;5066307;28;20479;-57
2022/12/11 11:21:16;;;;;;;23.17;10.40;;;1.80;1.00;;;;;;5060933;28;20407;-57
2022/12/11 11:23:43;;;;;;;23.52;10.50;;;2.20;1.00;;;;;;5058822;28;20863;-58
2022/12/11 11:26:10;;;;;;;25.63;10.25;;;2.30;1.00;;;;;;5059834;28;20399;-57
2022/12/11 11:28:39;;;;;;;22.08;9.05;;;2.50;1.00;;;;;;5063734;28;20432;-57
2022/12/11 11:31:10;;;;;;;22.47;10.90;;;2.40;1.00;;;;;;5048997;28;20476;-58
2022/12/11 11:33:44;;;;;;;18.67;9.77;;;2.40;1.00;;;;;;5062079;28;20402;-57
2022/12/11 11:36:29;;;;;;;22.45;8.88;;;2.50;1.00;;;;;;5061848;28;20502;-63
2022/12/11 11:39:19;;;;;;;18.37;8.43;;;2.40;1.00;;;;;;5061209;28;20550;-57
2022/12/11 11:42:09;;;;;;;19.40;9.70;;;2.20;1.00;;;;;;5066707;28;20722;-57
2022/12/11 11:45:05;;;;;;;17.83;8.90;;;2.30;1.00;;;;;;5065752;28;20866;-57
2022/12/11 11:47:44;;;;;;;19.70;8.52;;;2.10;1.00;;;;;;5035476;28;20419;-59
2022/12/11 11:50:21;;;;;;;26.35;12.55;;;1.70;1.00;;;;;;5062579;28;20936;-59
2022/12/11 11:52:52;;;;;;;20.30;8.40;;;1.70;1.00;;;;;;5061733;28;20380;-58
2022/12/11 11:55:44;;;;;;;21.70;9.80;;;1.60;1.00;;;;;;5058846;28;20738;-66
2022/12/11 11:58:21;;;;;;;22.92;9.95;;;1.50;1.00;;;;;;5026861;28;20409;-59
2022/12/11 12:00:48;;;;;;;23.27;9.93;;;1.50;1.00;;;;;;5061219;28;20737;-61
2022/12/11 12:03:19;;;;;;;23.73;9.73;;;1.80;1.00;;;;;;5057298;28;20389;-56
2022/12/11 12:06:09;;;;;;;19.58;7.63;;;2.10;1.00;;;;;;5059717;28;21202;-56
2022/12/11 12:08:54;;;;;;;19.65;8.50;;;2.10;1.00;;;;;;5062232;28;20411;-56
2022/12/11 12:11:31;;;;;;;20.33;8.80;;;3.40;1.00;;;;;;5060481;28;20391;-56
2022/12/11 12:14:15;;;;;;;19.95;8.48;;;2.20;1.00;;;;;;5060549;28;21013;-56
2022/12/11 12:16:48;;;;;;;21.02;10.73;;;2.30;1.00;;;;;;5060944;28;20816;-56
2022/12/11 12:19:38;;;;;;;21.23;9.30;;;2.40;1.00;;;;;;5059145;28;20390;-57
2022/12/11 12:22:19;;;;;;;25.50;11.73;;;2.40;1.00;;;;;;5057510;28;20913;-60
2022/12/11 12:25:16;;;;;;;22.75;8.52;;;2.60;1.00;;;;;;5038275;28;20455;-59
2022/12/11 12:27:44;;;;;;;19.13;7.53;;;2.60;1.00;;;;;;5058821;28;20411;-57
2022/12/11 12:30:15;;;;;;;20.85;8.30;;;2.80;1.00;;;;;;5059957;28;20452;-57
2022/12/11 12:33:26;;;;;;;20.05;8.88;;;3.00;1.00;;;;;;5060824;28;20397;-57
2022/12/11 12:35:58;;;;;;;20.70;9.93;;;3.00;1.00;;;;;;4988573;28;20859;-57
2022/12/11 12:38:46;;;;;;;21.30;9.10;;;3.00;1.00;;;;;;4989491;28;21089;-58
2022/12/11 12:41:13;;;;;;;23.73;9.03;;;3.00;1.00;;;;;;5043461;28;20474;-57
2022/12/11 12:44:13;;;;;;;24.17;10.40;;;2.90;1.00;;;;;;5054548;28;20415;-57
2022/12/11 12:46:45;;;;;;;31.07;12.17;;;2.70;1.00;;;;;;5052577;28;20385;-57
2022/12/11 12:49:16;;;;;;;26.83;11.50;;;2.80;1.00;;;;;;5058406;28;20527;-57
2022/12/11 12:51:43;;;;;;;26.00;11.68;;;2.80;1.00;;;;;;5062341;28;20483;-57
2022/12/11 12:54:14;;;;;;;26.52;11.93;;;2.90;1.00;;;;;;5053270;28;20388;-57
2022/12/11 12:56:42;;;;;;;31.83;12.75;;;3.00;1.00;;;;;;5053286;28;20483;-57
2022/12/11 12:59:26;;;;;;;28.88;12.85;;;3.00;1.00;;;;;;5048615;28;20392;-57
2022/12/11 13:02:15;;;;;;;27.53;12.23;;;2.90;1.00;;;;;;5059822;28;20446;-58
2022/12/11 13:04:42;;;;;;;31.70;12.70;;;2.80;1.00;;;;;;5053144;28;20400;-59
2022/12/11 13:07:19;;;;;;;29.52;12.23;;;2.70;1.00;;;;;;5058459;28;20438;-57